sensor_id;sensor_type;location;lat;lon;timestamp;P1;durP1;ratioP1;P2;durP2;ratioP2
55672;SDS011;41554;45.366;20.400;2023-04-10T00:00:23;34.17;;;24.85;;
55672;SDS011;41554;45.366;20.400;2023-04-10T00:02:49;32.92;;;25.17;;
55672;SDS011;41554;45.366;20.400;2023-04-10T00:05:15;35.70;;;24.20;;
55672;SDS011;41554;45.366;20.400;2023-04-10T00:07:41;40.35;;;24.40;;
55672;SDS011;41554;45.366;20.400;2023-04-10T00:10:08;36.55;;;25.65;;
55672;SDS011;41554;45.366;20.400;2023-04-10T00:12:34;31.38;;;22.67;;
55672;SDS011;41554;45.366;20.400;2023-04-10T00:15:01;38.45;;;25.88;;
55672;SDS011;41554;45.366;20.400;2023-04-10T00:17:28;38.30;;;26.38;;
55672;SDS011;41554;45.366;20.400;2023-04-10T00:19:54;40.47;;;23.92;;
55672;SDS011;41554;45.366;20.400;2023-04-10T00:22:20;32.33;;;23.60;;
55672;SDS011;41554;45.366;20.400;2023-04-10T00:24:46;34.38;;;22.67;;
55672;SDS011;41554;45.366;20.400;2023-04-10T00:27:12;31.70;;;23.52;;
55672;SDS011;41554;45.366;20.400;2023-04-10T00:29:38;27.50;;;22.02;;
55672;SDS011;41554;45.366;20.400;2023-04-10T00:32:04;41.15;;;24.60;;
55672;SDS011;41554;45.366;20.400;2023-04-10T00:34:30;37.20;;;24.55;;
55672;SDS011;41554;45.366;20.400;2023-04-10T00:36:57;40.75;;;27.80;;
55672;SDS011;41554;45.366;20.400;2023-04-10T00:39:23;41.40;;;25.25;;
55672;SDS011;41554;45.366;20.400;2023-04-10T00:41:49;33.80;;;25.17;;
55672;SDS011;41554;45.366;20.400;2023-04-10T00:44:15;37.30;;;25.35;;
55672;SDS011;41554;45.366;20.400;2023-04-10T00:46:41;34.67;;;25.05;;
55672;SDS011;41554;45.366;20.400;2023-04-10T00:49:08;42.28;;;26.90;;
55672;SDS011;41554;45.366;20.400;2023-04-10T00:51:35;42.80;;;26.75;;
55672;SDS011;41554;45.366;20.400;2023-04-10T00:54:01;35.00;;;27.02;;
55672;SDS011;41554;45.366;20.400;2023-04-10T00:56:31;38.22;;;22.88;;
55672;SDS011;41554;45.366;20.400;2023-04-10T00:58:58;39.67;;;27.80;;
55672;SDS011;41554;45.366;20.400;2023-04-10T01:01:24;35.65;;;26.02;;
55672;SDS011;41554;45.366;20.400;2023-04-10T01:03:50;41.67;;;27.15;;
55672;SDS011;41554;45.366;20.400;2023-04-10T01:06:24;42.53;;;27.92;;
55672;SDS011;41554;45.366;20.400;2023-04-10T01:16:33;35.20;;;25.95;;
55672;SDS011;41554;45.366;20.400;2023-04-10T01:21:45;34.88;;;23.60;;
55672;SDS011;41554;45.366;20.400;2023-04-10T01:29:25;37.78;;;26.05;;
55672;SDS011;41554;45.366;20.400;2023-04-10T01:32:00;39.00;;;22.52;;
55672;SDS011;41554;45.366;20.400;2023-04-10T01:34:30;39.25;;;26.13;;
55672;SDS011;41554;45.366;20.400;2023-04-10T01:39:23;41.20;;;25.45;;
55672;SDS011;41554;45.366;20.400;2023-04-10T01:41:52;35.00;;;25.77;;
55672;SDS011;41554;45.366;20.400;2023-04-10T01:44:22;40.03;;;26.27;;
55672;SDS011;41554;45.366;20.400;2023-04-10T01:46:50;42.92;;;26.17;;
55672;SDS011;41554;45.366;20.400;2023-04-10T01:49:17;37.28;;;26.20;;
55672;SDS011;41554;45.366;20.400;2023-04-10T01:51:43;36.45;;;21.95;;
55672;SDS011;41554;45.366;20.400;2023-04-10T01:54:10;36.25;;;21.67;;
55672;SDS011;41554;45.366;20.400;2023-04-10T01:56:37;39.78;;;24.33;;
55672;SDS011;41554;45.366;20.400;2023-04-10T01:59:03;33.95;;;23.77;;
55672;SDS011;41554;45.366;20.400;2023-04-10T02:01:30;38.28;;;26.20;;
55672;SDS011;41554;45.366;20.400;2023-04-10T02:03:57;35.47;;;24.02;;
55672;SDS011;41554;45.366;20.400;2023-04-10T02:09:15;31.40;;;21.67;;
55672;SDS011;41554;45.366;20.400;2023-04-10T02:11:51;33.60;;;21.80;;
55672;SDS011;41554;45.366;20.400;2023-04-10T02:14:20;32.42;;;22.45;;
55672;SDS011;41554;45.366;20.400;2023-04-10T02:16:48;37.80;;;24.13;;
55672;SDS011;41554;45.366;20.400;2023-04-10T02:19:15;37.63;;;24.30;;
55672;SDS011;41554;45.366;20.400;2023-04-10T02:21:42;29.35;;;21.25;;
55672;SDS011;41554;45.366;20.400;2023-04-10T02:24:08;39.60;;;26.17;;
55672;SDS011;41554;45.366;20.400;2023-04-10T02:26:44;35.53;;;23.17;;
55672;SDS011;41554;45.366;20.400;2023-04-10T02:29:10;35.88;;;22.00;;
55672;SDS011;41554;45.366;20.400;2023-04-10T02:31:37;29.55;;;22.10;;
55672;SDS011;41554;45.366;20.400;2023-04-10T02:34:03;28.25;;;22.50;;
55672;SDS011;41554;45.366;20.400;2023-04-10T02:36:29;30.63;;;22.52;;
55672;SDS011;41554;45.366;20.400;2023-04-10T02:38:55;31.50;;;20.38;;
55672;SDS011;41554;45.366;20.400;2023-04-10T02:41:21;28.38;;;20.67;;
55672;SDS011;41554;45.366;20.400;2023-04-10T02:43:48;33.85;;;22.05;;
55672;SDS011;41554;45.366;20.400;2023-04-10T02:46:14;31.95;;;20.25;;
55672;SDS011;41554;45.366;20.400;2023-04-10T02:48:40;31.05;;;20.17;;
55672;SDS011;41554;45.366;20.400;2023-04-10T02:51:06;31.73;;;22.52;;
55672;SDS011;41554;45.366;20.400;2023-04-10T02:53:32;29.25;;;20.67;;
55672;SDS011;41554;45.366;20.400;2023-04-10T02:55:58;28.95;;;19.55;;
55672;SDS011;41554;45.366;20.400;2023-04-10T02:58:24;35.58;;;22.92;;
55672;SDS011;41554;45.366;20.400;2023-04-10T03:00:51;28.52;;;20.48;;
55672;SDS011;41554;45.366;20.400;2023-04-10T03:03:18;34.10;;;23.00;;
55672;SDS011;41554;45.366;20.400;2023-04-10T03:05:44;32.95;;;22.77;;
55672;SDS011;41554;45.366;20.400;2023-04-10T03:08:14;28.05;;;19.98;;
55672;SDS011;41554;45.366;20.400;2023-04-10T03:13:08;33.42;;;23.60;;
55672;SDS011;41554;45.366;20.400;2023-04-10T03:15:34;28.60;;;20.33;;
55672;SDS011;41554;45.366;20.400;2023-04-10T03:18:00;35.58;;;21.88;;
55672;SDS011;41554;45.366;20.400;2023-04-10T03:20:27;34.33;;;23.83;;
55672;SDS011;41554;45.366;20.400;2023-04-10T03:22:53;27.15;;;21.10;;
55672;SDS011;41554;45.366;20.400;2023-04-10T03:25:19;25.63;;;19.17;;
55672;SDS011;41554;45.366;20.400;2023-04-10T03:27:46;24.60;;;17.35;;
55672;SDS011;41554;45.366;20.400;2023-04-10T03:30:12;26.77;;;20.45;;
55672;SDS011;41554;45.366;20.400;2023-04-10T03:32:38;34.90;;;19.83;;
55672;SDS011;41554;45.366;20.400;2023-04-10T03:35:06;28.85;;;17.85;;
55672;SDS011;41554;45.366;20.400;2023-04-10T03:37:32;27.77;;;20.88;;
55672;SDS011;41554;45.366;20.400;2023-04-10T03:39:58;29.00;;;20.45;;
55672;SDS011;41554;45.366;20.400;2023-04-10T03:42:24;24.10;;;17.52;;
55672;SDS011;41554;45.366;20.400;2023-04-10T03:44:51;25.80;;;20.90;;
55672;SDS011;41554;45.366;20.400;2023-04-10T03:47:17;28.98;;;19.92;;
55672;SDS011;41554;45.366;20.400;2023-04-10T03:49:43;26.95;;;19.75;;
55672;SDS011;41554;45.366;20.400;2023-04-10T03:52:09;26.17;;;18.25;;
55672;SDS011;41554;45.366;20.400;2023-04-10T03:54:35;26.52;;;18.80;;
55672;SDS011;41554;45.366;20.400;2023-04-10T03:57:01;35.60;;;22.08;;
55672;SDS011;41554;45.366;20.400;2023-04-10T03:59:27;29.08;;;17.73;;
55672;SDS011;41554;45.366;20.400;2023-04-10T04:01:53;27.70;;;20.45;;
55672;SDS011;41554;45.366;20.400;2023-04-10T04:04:19;28.40;;;19.98;;
55672;SDS011;41554;45.366;20.400;2023-04-10T04:06:45;30.02;;;21.08;;
55672;SDS011;41554;45.366;20.400;2023-04-10T04:09:12;22.55;;;17.27;;
55672;SDS011;41554;45.366;20.400;2023-04-10T04:11:38;29.95;;;20.63;;
55672;SDS011;41554;45.366;20.400;2023-04-10T04:14:04;26.83;;;18.67;;
55672;SDS011;41554;45.366;20.400;2023-04-10T04:16:30;25.63;;;17.85;;
55672;SDS011;41554;45.366;20.400;2023-04-10T04:18:56;31.60;;;21.23;;
55672;SDS011;41554;45.366;20.400;2023-04-10T04:21:22;27.38;;;18.90;;
55672;SDS011;41554;45.366;20.400;2023-04-10T04:23:48;26.85;;;19.33;;
55672;SDS011;41554;45.366;20.400;2023-04-10T04:26:14;21.20;;;16.15;;
55672;SDS011;41554;45.366;20.400;2023-04-10T04:28:41;24.60;;;19.60;;
55672;SDS011;41554;45.366;20.400;2023-04-10T04:31:07;31.20;;;18.45;;
55672;SDS011;41554;45.366;20.400;2023-04-10T04:33:33;28.67;;;20.95;;
55672;SDS011;41554;45.366;20.400;2023-04-10T04:35:59;25.88;;;19.88;;
55672;SDS011;41554;45.366;20.400;2023-04-10T04:38:25;23.20;;;17.20;;
55672;SDS011;41554;45.366;20.400;2023-04-10T04:40:51;26.98;;;17.65;;
55672;SDS011;41554;45.366;20.400;2023-04-10T04:43:17;34.78;;;18.48;;
55672;SDS011;41554;45.366;20.400;2023-04-10T04:45:43;30.88;;;21.17;;
55672;SDS011;41554;45.366;20.400;2023-04-10T04:48:09;24.15;;;19.75;;
55672;SDS011;41554;45.366;20.400;2023-04-10T04:50:35;32.90;;;23.73;;
55672;SDS011;41554;45.366;20.400;2023-04-10T04:53:01;27.33;;;19.63;;
55672;SDS011;41554;45.366;20.400;2023-04-10T04:55:27;32.60;;;22.23;;
55672;SDS011;41554;45.366;20.400;2023-04-10T04:57:53;27.08;;;20.10;;
55672;SDS011;41554;45.366;20.400;2023-04-10T05:00:19;37.38;;;20.80;;
55672;SDS011;41554;45.366;20.400;2023-04-10T05:02:45;25.35;;;18.10;;
55672;SDS011;41554;45.366;20.400;2023-04-10T05:05:11;29.00;;;21.13;;
55672;SDS011;41554;45.366;20.400;2023-04-10T05:07:37;30.65;;;20.45;;
55672;SDS011;41554;45.366;20.400;2023-04-10T05:10:04;34.53;;;21.77;;
55672;SDS011;41554;45.366;20.400;2023-04-10T05:12:30;25.13;;;19.83;;
55672;SDS011;41554;45.366;20.400;2023-04-10T05:14:56;30.55;;;20.88;;
55672;SDS011;41554;45.366;20.400;2023-04-10T05:17:22;31.10;;;19.85;;
55672;SDS011;41554;45.366;20.400;2023-04-10T05:19:48;27.75;;;19.73;;
55672;SDS011;41554;45.366;20.400;2023-04-10T05:22:14;27.98;;;18.92;;
55672;SDS011;41554;45.366;20.400;2023-04-10T05:24:40;31.02;;;19.65;;
55672;SDS011;41554;45.366;20.400;2023-04-10T05:27:06;27.92;;;18.20;;
55672;SDS011;41554;45.366;20.400;2023-04-10T05:29:32;25.05;;;20.70;;
55672;SDS011;41554;45.366;20.400;2023-04-10T05:31:59;29.25;;;20.58;;
55672;SDS011;41554;45.366;20.400;2023-04-10T05:34:25;26.77;;;17.85;;
55672;SDS011;41554;45.366;20.400;2023-04-10T05:36:51;23.75;;;17.98;;
55672;SDS011;41554;45.366;20.400;2023-04-10T05:39:17;25.13;;;20.20;;
55672;SDS011;41554;45.366;20.400;2023-04-10T05:41:43;25.20;;;17.77;;
55672;SDS011;41554;45.366;20.400;2023-04-10T05:44:09;23.25;;;19.02;;
55672;SDS011;41554;45.366;20.400;2023-04-10T05:46:35;30.65;;;21.25;;
55672;SDS011;41554;45.366;20.400;2023-04-10T05:49:01;28.63;;;19.88;;
55672;SDS011;41554;45.366;20.400;2023-04-10T05:51:27;22.42;;;18.42;;
55672;SDS011;41554;45.366;20.400;2023-04-10T05:53:53;23.77;;;18.73;;
55672;SDS011;41554;45.366;20.400;2023-04-10T05:56:20;24.50;;;20.38;;
55672;SDS011;41554;45.366;20.400;2023-04-10T05:58:46;39.95;;;23.38;;
55672;SDS011;41554;45.366;20.400;2023-04-10T06:01:12;36.40;;;20.48;;
55672;SDS011;41554;45.366;20.400;2023-04-10T06:03:38;28.42;;;18.58;;
55672;SDS011;41554;45.366;20.400;2023-04-10T06:06:05;28.90;;;19.23;;
55672;SDS011;41554;45.366;20.400;2023-04-10T06:08:31;21.40;;;17.38;;
55672;SDS011;41554;45.366;20.400;2023-04-10T06:10:58;27.65;;;20.40;;
55672;SDS011;41554;45.366;20.400;2023-04-10T06:13:24;30.40;;;20.73;;
55672;SDS011;41554;45.366;20.400;2023-04-10T06:15:51;29.38;;;17.88;;
55672;SDS011;41554;45.366;20.400;2023-04-10T06:18:17;24.90;;;16.63;;
55672;SDS011;41554;45.366;20.400;2023-04-10T06:20:43;23.75;;;15.88;;
55672;SDS011;41554;45.366;20.400;2023-04-10T06:23:11;27.38;;;19.67;;
55672;SDS011;41554;45.366;20.400;2023-04-10T06:25:38;28.90;;;20.45;;
55672;SDS011;41554;45.366;20.400;2023-04-10T06:28:04;25.77;;;17.63;;
55672;SDS011;41554;45.366;20.400;2023-04-10T06:30:30;27.80;;;20.10;;
55672;SDS011;41554;45.366;20.400;2023-04-10T06:32:58;24.02;;;16.83;;
55672;SDS011;41554;45.366;20.400;2023-04-10T06:35:25;28.75;;;19.65;;
55672;SDS011;41554;45.366;20.400;2023-04-10T06:37:52;24.30;;;18.90;;
55672;SDS011;41554;45.366;20.400;2023-04-10T06:40:18;29.60;;;20.38;;
55672;SDS011;41554;45.366;20.400;2023-04-10T06:42:44;29.98;;;18.83;;
55672;SDS011;41554;45.366;20.400;2023-04-10T06:45:10;30.30;;;19.55;;
55672;SDS011;41554;45.366;20.400;2023-04-10T06:47:36;33.08;;;19.42;;
55672;SDS011;41554;45.366;20.400;2023-04-10T06:50:02;24.65;;;19.40;;
55672;SDS011;41554;45.366;20.400;2023-04-10T06:52:28;26.70;;;18.60;;
55672;SDS011;41554;45.366;20.400;2023-04-10T06:54:54;25.27;;;18.80;;
55672;SDS011;41554;45.366;20.400;2023-04-10T06:57:20;26.45;;;19.63;;
55672;SDS011;41554;45.366;20.400;2023-04-10T06:59:46;30.52;;;22.08;;
55672;SDS011;41554;45.366;20.400;2023-04-10T07:02:12;27.98;;;19.35;;
55672;SDS011;41554;45.366;20.400;2023-04-10T07:04:38;25.00;;;17.45;;
55672;SDS011;41554;45.366;20.400;2023-04-10T07:07:05;27.17;;;20.42;;
55672;SDS011;41554;45.366;20.400;2023-04-10T07:09:33;27.75;;;19.30;;
55672;SDS011;41554;45.366;20.400;2023-04-10T07:12:00;27.92;;;20.65;;
55672;SDS011;41554;45.366;20.400;2023-04-10T07:14:26;29.50;;;21.15;;
55672;SDS011;41554;45.366;20.400;2023-04-10T07:16:52;32.35;;;22.10;;
55672;SDS011;41554;45.366;20.400;2023-04-10T07:19:18;30.67;;;20.88;;
55672;SDS011;41554;45.366;20.400;2023-04-10T07:21:45;29.75;;;19.63;;
55672;SDS011;41554;45.366;20.400;2023-04-10T07:24:14;25.60;;;17.58;;
55672;SDS011;41554;45.366;20.400;2023-04-10T07:26:41;31.42;;;20.33;;
55672;SDS011;41554;45.366;20.400;2023-04-10T07:29:07;27.15;;;20.95;;
55672;SDS011;41554;45.366;20.400;2023-04-10T07:31:33;24.15;;;18.20;;
55672;SDS011;41554;45.366;20.400;2023-04-10T07:34:00;35.85;;;22.98;;
55672;SDS011;41554;45.366;20.400;2023-04-10T07:36:26;31.60;;;19.50;;
55672;SDS011;41554;45.366;20.400;2023-04-10T07:38:52;28.63;;;17.33;;
55672;SDS011;41554;45.366;20.400;2023-04-10T07:41:18;25.27;;;17.60;;
55672;SDS011;41554;45.366;20.400;2023-04-10T07:43:44;24.92;;;19.83;;
55672;SDS011;41554;45.366;20.400;2023-04-10T07:46:10;26.75;;;18.48;;
55672;SDS011;41554;45.366;20.400;2023-04-10T07:48:36;28.67;;;19.73;;
55672;SDS011;41554;45.366;20.400;2023-04-10T07:51:02;28.33;;;18.48;;
55672;SDS011;41554;45.366;20.400;2023-04-10T07:53:28;34.15;;;19.52;;
55672;SDS011;41554;45.366;20.400;2023-04-10T07:55:55;26.02;;;19.23;;
55672;SDS011;41554;45.366;20.400;2023-04-10T07:58:21;23.77;;;17.80;;
55672;SDS011;41554;45.366;20.400;2023-04-10T08:00:47;24.92;;;17.75;;
55672;SDS011;41554;45.366;20.400;2023-04-10T08:03:13;25.45;;;17.02;;
55672;SDS011;41554;45.366;20.400;2023-04-10T08:05:40;28.15;;;18.45;;
55672;SDS011;41554;45.366;20.400;2023-04-10T08:08:06;27.13;;;17.33;;
55672;SDS011;41554;45.366;20.400;2023-04-10T08:10:32;25.45;;;17.48;;
55672;SDS011;41554;45.366;20.400;2023-04-10T08:12:59;20.88;;;14.73;;
55672;SDS011;41554;45.366;20.400;2023-04-10T08:15:25;20.67;;;14.98;;
55672;SDS011;41554;45.366;20.400;2023-04-10T08:17:51;21.00;;;15.50;;
55672;SDS011;41554;45.366;20.400;2023-04-10T08:20:17;24.40;;;16.60;;
55672;SDS011;41554;45.366;20.400;2023-04-10T08:22:43;26.73;;;16.70;;
55672;SDS011;41554;45.366;20.400;2023-04-10T08:25:09;22.73;;;16.65;;
55672;SDS011;41554;45.366;20.400;2023-04-10T08:27:35;21.80;;;17.08;;
55672;SDS011;41554;45.366;20.400;2023-04-10T08:30:00;22.52;;;14.60;;
55672;SDS011;41554;45.366;20.400;2023-04-10T08:32:26;22.08;;;15.60;;
55672;SDS011;41554;45.366;20.400;2023-04-10T08:34:53;30.00;;;15.70;;
55672;SDS011;41554;45.366;20.400;2023-04-10T08:37:18;23.30;;;14.43;;
55672;SDS011;41554;45.366;20.400;2023-04-10T08:39:45;29.42;;;16.67;;
55672;SDS011;41554;45.366;20.400;2023-04-10T08:42:11;17.70;;;12.45;;
55672;SDS011;41554;45.366;20.400;2023-04-10T08:44:37;22.08;;;14.40;;
55672;SDS011;41554;45.366;20.400;2023-04-10T08:47:03;19.58;;;13.15;;
55672;SDS011;41554;45.366;20.400;2023-04-10T08:51:59;17.25;;;13.00;;
55672;SDS011;41554;45.366;20.400;2023-04-10T08:54:27;16.58;;;13.18;;
55672;SDS011;41554;45.366;20.400;2023-04-10T08:56:54;14.13;;;10.88;;
55672;SDS011;41554;45.366;20.400;2023-04-10T08:59:22;19.95;;;13.25;;
55672;SDS011;41554;45.366;20.400;2023-04-10T09:01:48;18.45;;;12.50;;
55672;SDS011;41554;45.366;20.400;2023-04-10T09:04:14;17.25;;;12.25;;
55672;SDS011;41554;45.366;20.400;2023-04-10T09:06:43;15.60;;;10.95;;
55672;SDS011;41554;45.366;20.400;2023-04-10T09:09:09;14.15;;;8.88;;
55672;SDS011;41554;45.366;20.400;2023-04-10T09:14:20;14.05;;;10.82;;
55672;SDS011;41554;45.366;20.400;2023-04-10T09:16:46;16.33;;;9.85;;
55672;SDS011;41554;45.366;20.400;2023-04-10T09:19:12;12.80;;;9.13;;
55672;SDS011;41554;45.366;20.400;2023-04-10T09:21:39;11.77;;;8.35;;
55672;SDS011;41554;45.366;20.400;2023-04-10T09:24:14;9.35;;;8.18;;
55672;SDS011;41554;45.366;20.400;2023-04-10T09:26:40;13.35;;;9.10;;
55672;SDS011;41554;45.366;20.400;2023-04-10T09:29:07;10.80;;;7.78;;
55672;SDS011;41554;45.366;20.400;2023-04-10T09:31:35;11.88;;;8.90;;
55672;SDS011;41554;45.366;20.400;2023-04-10T09:36:34;14.85;;;9.88;;
55672;SDS011;41554;45.366;20.400;2023-04-10T09:39:01;13.68;;;9.18;;
55672;SDS011;41554;45.366;20.400;2023-04-10T09:41:27;11.40;;;7.07;;
55672;SDS011;41554;45.366;20.400;2023-04-10T09:44:09;11.45;;;7.78;;
55672;SDS011;41554;45.366;20.400;2023-04-10T09:46:36;8.98;;;7.82;;
55672;SDS011;41554;45.366;20.400;2023-04-10T09:49:02;12.88;;;8.00;;
55672;SDS011;41554;45.366;20.400;2023-04-10T09:51:32;12.15;;;8.25;;
55672;SDS011;41554;45.366;20.400;2023-04-10T09:53:59;12.80;;;7.60;;
55672;SDS011;41554;45.366;20.400;2023-04-10T09:56:25;9.63;;;6.85;;
55672;SDS011;41554;45.366;20.400;2023-04-10T09:58:52;10.25;;;7.82;;
55672;SDS011;41554;45.366;20.400;2023-04-10T10:01:21;13.05;;;9.10;;
55672;SDS011;41554;45.366;20.400;2023-04-10T10:03:47;9.98;;;6.53;;
55672;SDS011;41554;45.366;20.400;2023-04-10T10:06:13;8.68;;;6.28;;
55672;SDS011;41554;45.366;20.400;2023-04-10T10:08:40;12.68;;;8.27;;
55672;SDS011;41554;45.366;20.400;2023-04-10T10:11:06;9.75;;;6.68;;
55672;SDS011;41554;45.366;20.400;2023-04-10T10:13:48;15.18;;;7.47;;
55672;SDS011;41554;45.366;20.400;2023-04-10T10:16:19;7.60;;;5.95;;
55672;SDS011;41554;45.366;20.400;2023-04-10T10:21:29;8.43;;;6.55;;
55672;SDS011;41554;45.366;20.400;2023-04-10T10:23:58;10.35;;;6.38;;
55672;SDS011;41554;45.366;20.400;2023-04-10T10:26:25;9.75;;;6.10;;
55672;SDS011;41554;45.366;20.400;2023-04-10T10:28:52;11.13;;;7.07;;
55672;SDS011;41554;45.366;20.400;2023-04-10T10:31:18;17.85;;;7.05;;
55672;SDS011;41554;45.366;20.400;2023-04-10T10:33:46;13.98;;;7.63;;
55672;SDS011;41554;45.366;20.400;2023-04-10T10:36:13;9.55;;;7.55;;
55672;SDS011;41554;45.366;20.400;2023-04-10T10:38:43;8.48;;;6.97;;
55672;SDS011;41554;45.366;20.400;2023-04-10T10:41:15;10.02;;;6.75;;
55672;SDS011;41554;45.366;20.400;2023-04-10T10:46:23;9.38;;;6.85;;
55672;SDS011;41554;45.366;20.400;2023-04-10T10:48:58;11.93;;;6.72;;
55672;SDS011;41554;45.366;20.400;2023-04-10T10:51:41;10.63;;;6.40;;
55672;SDS011;41554;45.366;20.400;2023-04-10T10:56:53;8.90;;;6.28;;
55672;SDS011;41554;45.366;20.400;2023-04-10T10:59:52;16.80;;;7.20;;
55672;SDS011;41554;45.366;20.400;2023-04-10T11:02:17;10.30;;;7.10;;
55672;SDS011;41554;45.366;20.400;2023-04-10T11:04:44;12.38;;;7.93;;
55672;SDS011;41554;45.366;20.400;2023-04-10T11:07:11;9.57;;;6.97;;
55672;SDS011;41554;45.366;20.400;2023-04-10T11:12:32;8.35;;;6.88;;
55672;SDS011;41554;45.366;20.400;2023-04-10T11:15:21;9.82;;;7.22;;
55672;SDS011;41554;45.366;20.400;2023-04-10T11:17:48;10.13;;;7.35;;
55672;SDS011;41554;45.366;20.400;2023-04-10T11:20:15;9.80;;;7.55;;
55672;SDS011;41554;45.366;20.400;2023-04-10T11:28:26;11.35;;;8.25;;
55672;SDS011;41554;45.366;20.400;2023-04-10T11:34:01;12.23;;;9.32;;
55672;SDS011;41554;45.366;20.400;2023-04-10T11:36:28;9.32;;;7.38;;
55672;SDS011;41554;45.366;20.400;2023-04-10T11:38:56;14.55;;;10.63;;
55672;SDS011;41554;45.366;20.400;2023-04-10T11:41:29;12.02;;;9.30;;
55672;SDS011;41554;45.366;20.400;2023-04-10T11:43:59;8.45;;;6.65;;
55672;SDS011;41554;45.366;20.400;2023-04-10T11:46:25;11.18;;;8.32;;
55672;SDS011;41554;45.366;20.400;2023-04-10T11:48:58;10.18;;;7.07;;
55672;SDS011;41554;45.366;20.400;2023-04-10T11:51:24;10.35;;;6.68;;
55672;SDS011;41554;45.366;20.400;2023-04-10T11:56:33;11.10;;;9.00;;
55672;SDS011;41554;45.366;20.400;2023-04-10T11:59:00;12.18;;;9.27;;
55672;SDS011;41554;45.366;20.400;2023-04-10T12:01:31;11.35;;;8.00;;
55672;SDS011;41554;45.366;20.400;2023-04-10T12:03:57;14.15;;;7.88;;
55672;SDS011;41554;45.366;20.400;2023-04-10T12:06:23;10.60;;;8.15;;
55672;SDS011;41554;45.366;20.400;2023-04-10T12:08:49;11.75;;;7.63;;
55672;SDS011;41554;45.366;20.400;2023-04-10T12:11:19;9.93;;;7.63;;
55672;SDS011;41554;45.366;20.400;2023-04-10T12:13:46;16.70;;;8.30;;
55672;SDS011;41554;45.366;20.400;2023-04-10T12:16:13;9.02;;;7.25;;
55672;SDS011;41554;45.366;20.400;2023-04-10T12:18:39;10.82;;;7.97;;
55672;SDS011;41554;45.366;20.400;2023-04-10T12:21:05;10.20;;;7.70;;
55672;SDS011;41554;45.366;20.400;2023-04-10T12:23:32;10.23;;;7.60;;
55672;SDS011;41554;45.366;20.400;2023-04-10T12:26:14;10.77;;;7.13;;
55672;SDS011;41554;45.366;20.400;2023-04-10T12:28:41;9.00;;;7.60;;
55672;SDS011;41554;45.366;20.400;2023-04-10T12:31:14;18.02;;;7.80;;
55672;SDS011;41554;45.366;20.400;2023-04-10T12:33:43;24.50;;;8.82;;
55672;SDS011;41554;45.366;20.400;2023-04-10T12:36:21;10.88;;;7.60;;
55672;SDS011;41554;45.366;20.400;2023-04-10T12:38:48;11.05;;;7.75;;
55672;SDS011;41554;45.366;20.400;2023-04-10T12:41:19;19.30;;;7.80;;
55672;SDS011;41554;45.366;20.400;2023-04-10T12:43:46;8.07;;;7.20;;
55672;SDS011;41554;45.366;20.400;2023-04-10T12:46:21;9.65;;;7.25;;
55672;SDS011;41554;45.366;20.400;2023-04-10T12:48:48;12.45;;;8.20;;
55672;SDS011;41554;45.366;20.400;2023-04-10T12:51:14;10.07;;;7.60;;
55672;SDS011;41554;45.366;20.400;2023-04-10T12:53:46;9.60;;;7.95;;
55672;SDS011;41554;45.366;20.400;2023-04-10T12:56:12;12.95;;;8.13;;
55672;SDS011;41554;45.366;20.400;2023-04-10T12:58:38;13.82;;;8.32;;
55672;SDS011;41554;45.366;20.400;2023-04-10T13:01:07;16.75;;;8.55;;
55672;SDS011;41554;45.366;20.400;2023-04-10T13:03:34;12.60;;;7.50;;
55672;SDS011;41554;45.366;20.400;2023-04-10T13:06:01;11.80;;;9.05;;
55672;SDS011;41554;45.366;20.400;2023-04-10T13:08:27;10.88;;;7.32;;
55672;SDS011;41554;45.366;20.400;2023-04-10T13:10:56;10.35;;;8.27;;
55672;SDS011;41554;45.366;20.400;2023-04-10T13:13:26;12.98;;;8.50;;
55672;SDS011;41554;45.366;20.400;2023-04-10T13:15:53;14.80;;;9.40;;
55672;SDS011;41554;45.366;20.400;2023-04-10T13:18:19;8.88;;;6.68;;
55672;SDS011;41554;45.366;20.400;2023-04-10T13:20:45;16.70;;;7.20;;
55672;SDS011;41554;45.366;20.400;2023-04-10T13:23:11;8.98;;;7.13;;
55672;SDS011;41554;45.366;20.400;2023-04-10T13:25:38;8.07;;;7.22;;
55672;SDS011;41554;45.366;20.400;2023-04-10T13:28:05;8.45;;;7.20;;
55672;SDS011;41554;45.366;20.400;2023-04-10T13:30:35;14.93;;;7.78;;
55672;SDS011;41554;45.366;20.400;2023-04-10T13:33:02;7.97;;;6.40;;
55672;SDS011;41554;45.366;20.400;2023-04-10T13:35:28;8.18;;;6.65;;
55672;SDS011;41554;45.366;20.400;2023-04-10T13:37:54;9.00;;;6.32;;
55672;SDS011;41554;45.366;20.400;2023-04-10T13:40:20;7.82;;;6.30;;
55672;SDS011;41554;45.366;20.400;2023-04-10T13:42:47;10.48;;;7.22;;
55672;SDS011;41554;45.366;20.400;2023-04-10T13:45:13;13.70;;;8.32;;
55672;SDS011;41554;45.366;20.400;2023-04-10T13:47:40;18.02;;;7.45;;
55672;SDS011;41554;45.366;20.400;2023-04-10T13:50:06;8.85;;;7.53;;
55672;SDS011;41554;45.366;20.400;2023-04-10T13:52:32;8.05;;;6.43;;
55672;SDS011;41554;45.366;20.400;2023-04-10T13:54:58;9.35;;;7.15;;
55672;SDS011;41554;45.366;20.400;2023-04-10T13:57:25;8.13;;;6.97;;
55672;SDS011;41554;45.366;20.400;2023-04-10T13:59:51;12.60;;;9.18;;
55672;SDS011;41554;45.366;20.400;2023-04-10T14:02:17;10.23;;;7.25;;
55672;SDS011;41554;45.366;20.400;2023-04-10T14:04:43;9.63;;;7.10;;
55672;SDS011;41554;45.366;20.400;2023-04-10T14:07:10;8.98;;;6.25;;
55672;SDS011;41554;45.366;20.400;2023-04-10T14:09:36;10.75;;;6.47;;
55672;SDS011;41554;45.366;20.400;2023-04-10T14:12:02;9.82;;;6.63;;
55672;SDS011;41554;45.366;20.400;2023-04-10T14:14:28;11.05;;;5.78;;
55672;SDS011;41554;45.366;20.400;2023-04-10T14:16:55;11.25;;;6.53;;
55672;SDS011;41554;45.366;20.400;2023-04-10T14:19:21;8.40;;;5.72;;
55672;SDS011;41554;45.366;20.400;2023-04-10T14:21:47;11.45;;;7.10;;
55672;SDS011;41554;45.366;20.400;2023-04-10T14:24:13;7.50;;;5.10;;
55672;SDS011;41554;45.366;20.400;2023-04-10T14:26:39;10.25;;;6.03;;
55672;SDS011;41554;45.366;20.400;2023-04-10T14:29:05;8.00;;;6.40;;
55672;SDS011;41554;45.366;20.400;2023-04-10T14:31:32;14.38;;;5.57;;
55672;SDS011;41554;45.366;20.400;2023-04-10T14:33:58;8.35;;;6.40;;
55672;SDS011;41554;45.366;20.400;2023-04-10T14:36:24;12.35;;;8.07;;
55672;SDS011;41554;45.366;20.400;2023-04-10T14:38:51;10.18;;;6.97;;
55672;SDS011;41554;45.366;20.400;2023-04-10T14:41:17;12.65;;;7.00;;
55672;SDS011;41554;45.366;20.400;2023-04-10T14:43:43;16.73;;;8.63;;
55672;SDS011;41554;45.366;20.400;2023-04-10T14:46:08;20.05;;;7.88;;
55672;SDS011;41554;45.366;20.400;2023-04-10T14:48:34;7.90;;;5.88;;
55672;SDS011;41554;45.366;20.400;2023-04-10T14:51:00;11.05;;;6.65;;
55672;SDS011;41554;45.366;20.400;2023-04-10T14:53:26;7.78;;;6.00;;
55672;SDS011;41554;45.366;20.400;2023-04-10T14:55:52;8.10;;;5.90;;
55672;SDS011;41554;45.366;20.400;2023-04-10T14:58:17;9.02;;;6.57;;
55672;SDS011;41554;45.366;20.400;2023-04-10T15:00:43;15.18;;;9.93;;
55672;SDS011;41554;45.366;20.400;2023-04-10T15:03:09;14.13;;;10.98;;
55672;SDS011;41554;45.366;20.400;2023-04-10T15:05:34;18.02;;;12.32;;
55672;SDS011;41554;45.366;20.400;2023-04-10T15:08:00;16.02;;;11.25;;